Hebei Shijiazhuang — VRIS2 — position and weather

sailwx.info

Track history (hours):
 
Tides and Currents Weather Stations Pressure Air Temp Water Temp Dewpoint Dewpoint Depression Visibility Wind Speed Wind Dir Waves Ship Positions

Hebei Shijiazhuang

Last reported at 2016-Aug-23 00:33 UTC. Time now 2016-Aug-24 04:48 UTC.
Position N 36°23' E 122°24'.

Length 235 m.

Type: Cargo ship. MMSI: 477899000.

Date/timePositionNaut miles runAvg speedWind from/ knotsBaromVisibWave heightAir tempDewpointWater temp
2016-Aug-23 00:33N 36°23' E 122°24'1313.2
2016-Aug-22 23:33N 36°27' E 122°40'1413.8
2016-Aug-22 22:33N 36°37' E 122°52'1414.1
2016-Aug-22 21:33N 36°46' E 123°05'1414.4
2016-Aug-22 20:33N 37°01' E 123°07'1615.4
2016-Aug-22 19:33N 37°16' E 123°08'1515.0
2016-Aug-22 18:33N 37°31' E 123°06'1514.9
2016-Aug-22 17:32N 37°38' E 122°49'1414.3
2016-Aug-22 16:33N 37°43' E 122°32'1413.7
2016-Aug-22 15:34N 37°44' E 122°15'1313.5
2016-Aug-22 14:33N 37°45' E 121°58'1413.9
2016-Aug-22 13:33N 37°45' E 121°40'1414.0
2016-Aug-22 12:33N 37°46' E 121°23'1110.9
2016-Aug-22 11:34N 37°45' E 121°09'2 2.3
2016-Aug-22 10:33N 37°43' E 121°07'0 0.0
2016-Aug-22 09:33N 37°43' E 121°07'0 0.0
2016-Aug-22 08:33N 37°43' E 121°07'0 0.0
2016-Aug-22 07:33N 37°43' E 121°07'0 0.0
2016-Aug-22 06:33N 37°43' E 121°07'0 0.0
2016-Aug-22 05:27N 37°43' E 121°07'0 0.0
2016-Aug-22 04:33N 37°43' E 121°07'0 0.0
2016-Aug-22 03:33N 37°43' E 121°07'0 0.0
2016-Aug-22 02:27N 37°43' E 121°07'0 0.0
2016-Aug-22 01:33N 37°43' E 121°07'0 0.0
2016-Aug-22 00:33N 37°43' E 121°07'0 0.0
2016-Aug-21 22:33N 37°43' E 121°07'0 0.0
2016-Aug-21 21:33N 37°43' E 121°07'0 0.0
2016-Aug-21 20:30N 37°43' E 121°07'0 0.0
2016-Aug-21 19:33N 37°43' E 121°07'0 0.0
2016-Aug-21 18:33N 37°43' E 121°07'0 0.0
2016-Aug-21 17:30N 37°43' E 121°07'0 0.0
2016-Aug-21 16:24N 37°43' E 121°07'0 0.0
2016-Aug-21 15:27N 37°43' E 121°07'0 0.0
2016-Aug-21 14:27N 37°43' E 121°07'0 0.0
2016-Aug-21 13:33N 37°43' E 121°07'0 0.0
2016-Aug-21 12:33N 37°43' E 121°07'0 0.0
2016-Aug-21 11:27N 37°43' E 121°07'0 0.0
2016-Aug-21 10:33N 37°43' E 121°07'0 0.0
2016-Aug-21 09:33N 37°43' E 121°07'0 0.0
2016-Aug-21 08:27N 37°43' E 121°07'0 0.0
2016-Aug-21 07:30N 37°43' E 121°07'0 0.0
2016-Aug-21 06:30N 37°43' E 121°07'0 0.0
2016-Aug-21 05:33N 37°43' E 121°07'0 0.0
2016-Aug-21 04:33N 37°43' E 121°07'0 0.0
2016-Aug-21 03:09N 37°43' E 121°07'0 0.0
2016-Aug-21 02:33N 37°43' E 121°07'0 0.0
2016-Aug-21 01:33N 37°43' E 121°07'0 0.0
2016-Aug-21 00:30N 37°43' E 121°07'0 0.0
2016-Aug-20 23:30N 37°43' E 121°07'0 0.0
2016-Aug-20 22:33N 37°43' E 121°07'0 0.0
2016-Aug-20 21:30N 37°43' E 121°07'0 0.0
2016-Aug-20 20:27N 37°43' E 121°07'0 0.0
2016-Aug-20 19:33N 37°43' E 121°07'0 0.0
2016-Aug-20 18:27N 37°43' E 121°07'0 0.0
2016-Aug-20 17:24N 37°43' E 121°07'0 0.1
2016-Aug-20 16:30N 37°43' E 121°07'0 0.0
2016-Aug-20 15:33N 37°43' E 121°07'0 0.0
2016-Aug-20 14:33N 37°43' E 121°07'0 0.0
2016-Aug-20 13:27N 37°43' E 121°07'0 0.0
2016-Aug-20 12:33N 37°43' E 121°07'0 0.0
2016-Aug-20 11:33N 37°43' E 121°07'0 0.0
2016-Aug-20 10:33N 37°43' E 121°07'0 0.0
2016-Aug-20 09:24N 37°43' E 121°07'0 0.0
2016-Aug-20 08:30N 37°43' E 121°07'0 0.0
2016-Aug-20 07:33N 37°43' E 121°07'0 0.0
2016-Aug-20 06:33N 37°43' E 121°07'0 0.0
2016-Aug-20 05:30N 37°43' E 121°07'0 0.0
2016-Aug-20 04:33N 37°43' E 121°07'0 0.0
2016-Aug-20 03:33N 37°43' E 121°07'0 0.0
2016-Aug-20 02:33N 37°43' E 121°07'2 1.7
2016-Aug-20 01:33N 37°45' E 121°08'7 6.8
2016-Aug-20 00:33N 37°49' E 121°16'1 1.0
2016-Aug-19 23:18N 37°49' E 121°17'0 0.0
2016-Aug-19 22:33N 37°49' E 121°17'0 0.0
2016-Aug-19 21:33N 37°49' E 121°17'0 0.0
2016-Aug-19 20:33N 37°49' E 121°17'0 0.0
2016-Aug-19 18:30N 37°49' E 121°17'0 0.0
2016-Aug-19 17:27N 37°49' E 121°17'0 0.0
2016-Aug-19 16:33N 37°49' E 121°17'0 0.0
2016-Aug-19 15:27N 37°49' E 121°17'0 0.0
2016-Aug-19 14:27N 37°49' E 121°17'0 0.0
2016-Aug-19 13:30N 37°49' E 121°17'0 0.0
2016-Aug-19 12:30N 37°49' E 121°17'0 0.3
2016-Aug-19 11:33N 37°50' E 121°17'4 3.5
2016-Aug-19 10:33N 37°51' E 121°21'7 7.4
2016-Aug-19 09:34N 37°52' E 121°30'9 9.1
2016-Aug-19 08:33N 37°51' E 121°42'8 8.0
2016-Aug-19 07:33N 37°51' E 121°52'1211.2
2016-Aug-19 06:30N 37°51' E 122°07'1210.9
2016-Aug-19 05:25N 37°49' E 122°21'4110.5
2016-Aug-19 01:33N 37°34' E 123°10'4911.0
2016-Aug-18 21:06N 36°51' E 123°39'  
Track history (hours):
 
Tides and Currents Weather Stations Pressure Air Temp Water Temp Dewpoint Dewpoint Depression Visibility Wind Speed Wind Dir Waves Ship Positions

Hebei Shijiazhuang

Last reported at 2016-Aug-23 00:33 UTC. Time now 2016-Aug-24 04:48 UTC.
Position N 36°23' E 122°24'.

Length 235 m.

Type: Cargo ship. MMSI: 477899000.

Date/timePositionNaut miles runAvg speedWind from/ knotsBaromVisibWave heightAir tempDewpointWater temp
2016-Aug-23 00:33N 36°23' E 122°24'1313.2
2016-Aug-22 23:33N 36°27' E 122°40'1413.8
2016-Aug-22 22:33N 36°37' E 122°52'1414.1
2016-Aug-22 21:33N 36°46' E 123°05'1414.4
2016-Aug-22 20:33N 37°01' E 123°07'1615.4
2016-Aug-22 19:33N 37°16' E 123°08'1515.0
2016-Aug-22 18:33N 37°31' E 123°06'1514.9
2016-Aug-22 17:32N 37°38' E 122°49'1414.3
2016-Aug-22 16:33N 37°43' E 122°32'1413.7
2016-Aug-22 15:34N 37°44' E 122°15'1313.5
2016-Aug-22 14:33N 37°45' E 121°58'1413.9
2016-Aug-22 13:33N 37°45' E 121°40'1414.0
2016-Aug-22 12:33N 37°46' E 121°23'1110.9
2016-Aug-22 11:34N 37°45' E 121°09'2 2.3
2016-Aug-22 10:33N 37°43' E 121°07'0 0.0
2016-Aug-22 09:33N 37°43' E 121°07'0 0.0
2016-Aug-22 08:33N 37°43' E 121°07'0 0.0
2016-Aug-22 07:33N 37°43' E 121°07'0 0.0
2016-Aug-22 06:33N 37°43' E 121°07'0 0.0
2016-Aug-22 05:27N 37°43' E 121°07'0 0.0
2016-Aug-22 04:33N 37°43' E 121°07'0 0.0
2016-Aug-22 03:33N 37°43' E 121°07'0 0.0
2016-Aug-22 02:27N 37°43' E 121°07'0 0.0
2016-Aug-22 01:33N 37°43' E 121°07'0 0.0
2016-Aug-22 00:33N 37°43' E 121°07'0 0.0
2016-Aug-21 22:33N 37°43' E 121°07'0 0.0
2016-Aug-21 21:33N 37°43' E 121°07'0 0.0
2016-Aug-21 20:30N 37°43' E 121°07'0 0.0
2016-Aug-21 19:33N 37°43' E 121°07'0 0.0
2016-Aug-21 18:33N 37°43' E 121°07'0 0.0
2016-Aug-21 17:30N 37°43' E 121°07'0 0.0
2016-Aug-21 16:24N 37°43' E 121°07'0 0.0
2016-Aug-21 15:27N 37°43' E 121°07'0 0.0
2016-Aug-21 14:27N 37°43' E 121°07'0 0.0
2016-Aug-21 13:33N 37°43' E 121°07'0 0.0
2016-Aug-21 12:33N 37°43' E 121°07'0 0.0
2016-Aug-21 11:27N 37°43' E 121°07'0 0.0
2016-Aug-21 10:33N 37°43' E 121°07'0 0.0
2016-Aug-21 09:33N 37°43' E 121°07'0 0.0
2016-Aug-21 08:27N 37°43' E 121°07'0 0.0
2016-Aug-21 07:30N 37°43' E 121°07'0 0.0
2016-Aug-21 06:30N 37°43' E 121°07'0 0.0
2016-Aug-21 05:33N 37°43' E 121°07'0 0.0
2016-Aug-21 04:33N 37°43' E 121°07'0 0.0
2016-Aug-21 03:09N 37°43' E 121°07'0 0.0
2016-Aug-21 02:33N 37°43' E 121°07'0 0.0
2016-Aug-21 01:33N 37°43' E 121°07'0 0.0
2016-Aug-21 00:30N 37°43' E 121°07'0 0.0
2016-Aug-20 23:30N 37°43' E 121°07'0 0.0
2016-Aug-20 22:33N 37°43' E 121°07'0 0.0
2016-Aug-20 21:30N 37°43' E 121°07'0 0.0
2016-Aug-20 20:27N 37°43' E 121°07'0 0.0
2016-Aug-20 19:33N 37°43' E 121°07'0 0.0
2016-Aug-20 18:27N 37°43' E 121°07'0 0.0
2016-Aug-20 17:24N 37°43' E 121°07'0 0.1
2016-Aug-20 16:30N 37°43' E 121°07'0 0.0
2016-Aug-20 15:33N 37°43' E 121°07'0 0.0
2016-Aug-20 14:33N 37°43' E 121°07'0 0.0
2016-Aug-20 13:27N 37°43' E 121°07'0 0.0
2016-Aug-20 12:33N 37°43' E 121°07'0 0.0
2016-Aug-20 11:33N 37°43' E 121°07'0 0.0
2016-Aug-20 10:33N 37°43' E 121°07'0 0.0
2016-Aug-20 09:24N 37°43' E 121°07'0 0.0
2016-Aug-20 08:30N 37°43' E 121°07'0 0.0
2016-Aug-20 07:33N 37°43' E 121°07'0 0.0
2016-Aug-20 06:33N 37°43' E 121°07'0 0.0
2016-Aug-20 05:30N 37°43' E 121°07'0 0.0
2016-Aug-20 04:33N 37°43' E 121°07'0 0.0
2016-Aug-20 03:33N 37°43' E 121°07'0 0.0
2016-Aug-20 02:33N 37°43' E 121°07'2 1.7
2016-Aug-20 01:33N 37°45' E 121°08'7 6.8
2016-Aug-20 00:33N 37°49' E 121°16'1 1.0
2016-Aug-19 23:18N 37°49' E 121°17'0 0.0
2016-Aug-19 22:33N 37°49' E 121°17'0 0.0
2016-Aug-19 21:33N 37°49' E 121°17'0 0.0
2016-Aug-19 20:33N 37°49' E 121°17'0 0.0
2016-Aug-19 18:30N 37°49' E 121°17'0 0.0
2016-Aug-19 17:27N 37°49' E 121°17'0 0.0
2016-Aug-19 16:33N 37°49' E 121°17'0 0.0
2016-Aug-19 15:27N 37°49' E 121°17'0 0.0
2016-Aug-19 14:27N 37°49' E 121°17'0 0.0
2016-Aug-19 13:30N 37°49' E 121°17'0 0.0
2016-Aug-19 12:30N 37°49' E 121°17'0 0.3
2016-Aug-19 11:33N 37°50' E 121°17'4 3.5
2016-Aug-19 10:33N 37°51' E 121°21'7 7.4
2016-Aug-19 09:34N 37°52' E 121°30'9 9.1
2016-Aug-19 08:33N 37°51' E 121°42'8 8.0
2016-Aug-19 07:33N 37°51' E 121°52'1211.2
2016-Aug-19 06:30N 37°51' E 122°07'1210.9
2016-Aug-19 05:25N 37°49' E 122°21'4110.5
2016-Aug-19 01:33N 37°34' E 123°10'4911.0
2016-Aug-18 21:06N 36°51' E 123°39'  

Dump ship's entire track history